Time;durP1;ratioP1;P1;durP2;ratioP2;P2;SDS_P1;SDS_P2;PMS_P1;PMS_P2;Temp;Humidity;BMP_temperature;BMP_pressure;BME280_temperature;BME280_humidity;BME280_pressure;Samples;Min_cycle;Max_cycle;Signal;HPM_P1;HPM_P2
2022/07/06 00:00:51;;;;;;;8.75;6.75;;;;;;;18.65;92.68;94550.91;4992918;28;20202;-80
2022/07/06 00:03:18;;;;;;;8.18;5.82;;;;;;;18.63;92.16;94553.22;4993177;28;20197;-80
2022/07/06 00:05:45;;;;;;;11.88;5.25;;;;;;;18.62;91.16;94557.13;4993142;28;20284;-80
2022/07/06 00:08:12;;;;;;;6.60;4.70;;;;;;;18.65;90.96;94556.38;4993242;28;20206;-80
2022/07/06 00:10:40;;;;;;;8.57;4.95;;;;;;;18.64;91.39;94561.09;4992901;28;20206;-78
2022/07/06 00:13:07;;;;;;;10.32;5.55;;;;;;;18.69;91.96;94562.69;4993414;28;20256;-79
2022/07/06 00:15:33;;;;;;;9.88;5.88;;;;;;;18.73;91.87;94568.97;4993013;28;20218;-80
2022/07/06 00:18:00;;;;;;;10.43;5.85;;;;;;;18.82;92.19;94574.94;4993157;28;20209;-79
2022/07/06 00:20:27;;;;;;;14.20;6.00;;;;;;;18.72;92.99;94581.91;4993104;28;20279;-80
2022/07/06 00:22:54;;;;;;;7.80;4.93;;;;;;;18.75;93.68;94599.56;4993037;28;20221;-78
2022/07/06 00:25:21;;;;;;;8.23;5.60;;;;;;;18.67;95.49;94604.22;4993041;28;20280;-79
2022/07/06 00:27:49;;;;;;;5.97;4.90;;;;;;;18.66;96.09;94612.84;4992878;28;20288;-78
2022/07/06 00:30:16;;;;;;;9.60;6.03;;;;;;;18.65;93.56;94609.31;4992812;28;20248;-80
2022/07/06 00:32:42;;;;;;;9.35;5.35;;;;;;;18.78;94.76;94615.28;4992182;28;20248;-79
2022/07/06 00:35:09;;;;;;;7.97;5.35;;;;;;;18.90;95.13;94617.75;4992883;28;20241;-80
2022/07/06 00:37:36;;;;;;;8.73;5.65;;;;;;;19.14;94.82;94600.66;4992511;28;20197;-79
2022/07/06 00:40:04;;;;;;;10.48;6.50;;;;;;;19.29;95.12;94611.72;4992464;28;20206;-79
2022/07/06 00:42:31;;;;;;;10.02;5.78;;;;;;;19.44;95.05;94613.38;4992769;28;20206;-79
2022/07/06 00:44:59;;;;;;;7.03;4.93;;;;;;;19.43;95.51;94607.09;4992566;28;20221;-79
2022/07/06 00:47:26;;;;;;;9.82;5.40;;;;;;;19.49;95.19;94599.31;4992219;28;20237;-79
2022/07/06 00:52:37;;;;;;;8.68;5.35;;;;;;;19.55;95.38;94597.75;4992467;28;20303;-79
2022/07/06 00:55:04;;;;;;;9.52;5.65;;;;;;;19.19;96.15;94602.25;4992308;28;20213;-79
2022/07/06 00:57:31;;;;;;;7.65;5.10;;;;;;;19.05;97.15;94597.44;4991258;28;20258;-78
2022/07/06 01:00:00;;;;;;;9.88;5.50;;;;;;;19.01;97.92;94585.66;4992457;28;20613;-79
2022/07/06 01:02:27;;;;;;;6.45;3.83;;;;;;;18.82;98.66;94583.19;4992397;28;20272;-76
2022/07/06 01:04:54;;;;;;;10.65;5.75;;;;;;;18.78;99.15;94582.34;4991422;28;20265;-79
2022/07/06 01:07:21;;;;;;;13.02;6.60;;;;;;;18.70;99.38;94569.75;4991943;28;20237;-79
2022/07/06 01:09:47;;;;;;;9.82;6.18;;;;;;;18.68;99.94;94552.88;4991951;28;20686;-77
2022/07/06 01:12:14;;;;;;;10.15;6.22;;;;;;;18.72;99.54;94561.94;4992158;28;20269;-80
2022/07/06 01:14:41;;;;;;;12.20;6.38;;;;;;;18.86;99.75;94561.25;4992182;28;20213;-80
2022/07/06 01:17:10;;;;;;;16.23;6.40;;;;;;;18.93;98.86;94559.34;4991831;28;20206;-80
2022/07/06 01:19:37;;;;;;;11.77;6.32;;;;;;;18.98;98.15;94558.97;4992295;28;20540;-80
2022/07/06 01:22:05;;;;;;;12.98;6.80;;;;;;;18.94;97.86;94560.91;4991966;28;20664;-80
2022/07/06 01:24:32;;;;;;;11.45;6.22;;;;;;;18.98;97.40;94553.50;4991785;28;20316;-80
2022/07/06 01:26:59;;;;;;;13.07;6.38;;;;;;;18.97;96.49;94554.66;4991570;28;20291;-79
2022/07/06 01:29:26;;;;;;;10.15;6.18;;;;;;;18.93;97.43;94562.06;4990916;28;20256;-79
2022/07/06 01:31:52;;;;;;;10.50;6.72;;;;;;;18.82;97.91;94561.22;4991408;28;20567;-79
2022/07/06 01:34:20;;;;;;;15.93;7.55;;;;;;;18.80;97.84;94567.09;4990795;28;20201;-80
2022/07/06 01:36:47;;;;;;;12.00;6.93;;;;;;;18.72;98.35;94562.69;4991780;28;20194;-79
2022/07/06 01:43:14;;;;;;;10.27;5.82;;;;;;;18.68;98.60;94566.59;4986026;28;20255;-81
2022/07/06 01:45:41;;;;;;;11.57;6.57;;;;;;;18.67;97.90;94559.53;4991817;28;20193;-79
2022/07/06 01:48:09;;;;;;;15.07;7.32;;;;;;;18.66;98.56;94552.47;4991563;28;20201;-80
2022/07/06 01:50:35;;;;;;;8.93;5.70;;;;;;;18.54;98.92;94560.97;4991806;28;20198;-80
2022/07/06 01:53:02;;;;;;;11.88;6.47;;;;;;;18.41;99.43;94564.00;4992047;28;20211;-79
2022/07/06 01:55:29;;;;;;;11.98;6.43;;;;;;;18.43;100.00;94567.16;4991964;28;20209;-80
2022/07/06 01:57:56;;;;;;;7.22;4.85;;;;;;;18.43;99.09;94571.88;4991711;28;20545;-80
2022/07/06 02:00:24;;;;;;;10.18;5.10;;;;;;;18.40;99.02;94576.16;4991678;28;20201;-79
2022/07/06 02:02:51;;;;;;;8.88;5.47;;;;;;;18.40;98.53;94572.63;4978529;28;20260;-80
2022/07/06 02:05:18;;;;;;;7.85;5.00;;;;;;;18.40;98.44;94578.88;4991198;28;20271;-80
2022/07/06 02:07:45;;;;;;;10.60;5.15;;;;;;;18.48;98.26;94583.25;4991194;28;20639;-79
2022/07/06 02:10:11;;;;;;;8.98;4.90;;;;;;;18.43;97.83;94572.66;4994095;28;20276;-80
2022/07/06 02:12:38;;;;;;;7.63;5.15;;;;;;;18.43;97.47;94572.66;4995595;28;20206;-80
2022/07/06 02:15:06;;;;;;;7.57;4.65;;;;;;;18.38;96.47;94570.25;4995479;28;20295;-80
2022/07/06 02:17:34;;;;;;;9.57;4.60;;;;;;;18.39;96.65;94571.03;4995376;28;20252;-80
2022/07/06 02:20:01;;;;;;;7.13;4.38;;;;;;;18.40;96.57;94578.88;4995079;28;20597;-80
2022/07/06 02:22:28;;;;;;;7.90;4.40;;;;;;;18.42;96.15;94571.06;4995055;28;20208;-80
2022/07/06 02:24:54;;;;;;;5.45;3.95;;;;;;;18.33;94.88;94573.31;4995066;28;20210;-80
2022/07/06 02:27:21;;;;;;;6.97;4.35;;;;;;;18.38;95.01;94570.25;4995058;28;20281;-80
2022/07/06 02:29:48;;;;;;;5.10;3.53;;;;;;;18.36;93.79;94572.56;4994705;28;20209;-80
2022/07/06 02:32:15;;;;;;;6.22;3.85;;;;;;;18.56;94.69;94566.88;4995206;28;20234;-80
2022/07/06 02:34:43;;;;;;;6.88;4.30;;;;;;;18.59;95.09;94563.38;4994633;28;20252;-80
2022/07/06 02:37:10;;;;;;;7.38;4.05;;;;;;;18.66;95.03;94568.94;4993750;28;20561;-80
2022/07/06 02:39:37;;;;;;;6.75;4.38;;;;;;;18.65;94.50;94562.66;4994684;28;20252;-80
2022/07/06 02:42:04;;;;;;;6.63;4.40;;;;;;;18.62;94.39;94563.41;4995050;28;20228;-78
2022/07/06 02:44:31;;;;;;;8.40;4.40;;;;;;;18.62;93.20;94563.41;4994831;28;20553;-79
2022/07/06 02:46:58;;;;;;;7.13;4.72;;;;;;;18.56;93.56;94566.88;4994370;28;20225;-78
2022/07/06 02:49:25;;;;;;;8.77;4.20;;;;;;;18.53;94.81;94573.13;4994809;28;20214;-79
2022/07/06 02:51:53;;;;;;;9.57;4.45;;;;;;;18.56;94.51;94569.63;4994785;28;20210;-79
2022/07/06 02:54:20;;;;;;;9.68;4.35;;;;;;;18.36;95.24;94572.56;4994592;28;20206;-82
2022/07/06 02:56:50;;;;;;;8.52;4.43;;;;;;;18.26;95.79;94569.75;4994735;28;20209;-80
2022/07/06 02:59:17;;;;;;;9.50;4.70;;;;;;;18.21;96.59;94576.34;4994996;28;20202;-81
2022/07/06 03:01:44;;;;;;;9.27;4.53;;;;;;;18.13;97.61;94569.22;4994030;28;20268;-79
2022/07/06 03:04:11;;;;;;;12.23;5.13;;;;;;;18.09;97.76;94565.66;4994119;28;20275;-80
2022/07/06 03:06:38;;;;;;;11.70;4.88;;;;;;;18.09;97.98;94563.69;4994179;28;20244;-80
2022/07/06 03:09:06;;;;;;;9.50;5.15;;;;;;;18.14;98.02;94567.28;4993508;28;20214;-80
2022/07/06 03:11:35;;;;;;;7.93;4.95;;;;;;;18.08;98.16;94562.13;4994764;28;20206;-80
2022/07/06 03:14:02;;;;;;;8.07;5.03;;;;;;;18.05;98.42;94562.09;4994657;28;20206;-80
2022/07/06 03:16:29;;;;;;;9.25;4.68;;;;;;;18.19;98.15;94570.44;4994188;28;20276;-80
2022/07/06 03:18:56;;;;;;;9.45;5.07;;;;;;;18.44;96.85;94573.44;4994062;28;20202;-80
2022/07/06 03:21:23;;;;;;;9.20;4.55;;;;;;;18.43;95.50;94578.13;4992654;28;20720;-78
2022/07/06 03:23:50;;;;;;;6.68;4.40;;;;;;;18.38;95.51;94581.22;4993984;28;20226;-80
2022/07/06 03:26:18;;;;;;;6.85;4.93;;;;;;;18.44;95.56;94585.19;4993746;28;20205;-80
2022/07/06 03:28:45;;;;;;;6.95;4.53;;;;;;;18.56;95.05;94581.38;4993786;28;20842;-78
2022/07/06 03:31:12;;;;;;;8.80;4.85;;;;;;;18.55;94.83;94590.00;4993812;28;20546;-79
2022/07/06 03:33:39;;;;;;;11.00;4.88;;;;;;;18.64;95.33;94590.47;4993416;28;20233;-78
2022/07/06 03:36:06;;;;;;;11.23;5.43;;;;;;;18.75;94.74;94583.09;4993690;28;20201;-80
2022/07/06 03:38:34;;;;;;;8.18;4.95;;;;;;;18.94;93.48;94595.81;4980646;28;20210;-79
2022/07/06 03:41:00;;;;;;;8.95;5.10;;;;;;;18.84;93.27;94591.81;4993075;28;20206;-79
2022/07/06 03:43:29;;;;;;;5.95;4.20;;;;;;;18.89;92.19;94599.69;4993705;28;20256;-80
2022/07/06 03:45:55;;;;;;;9.48;5.70;;;;;;;19.07;91.73;94583.34;4993780;28;20202;-78
2022/07/06 03:48:22;;;;;;;8.07;4.63;;;;;;;19.12;90.46;94603.00;4993982;28;20304;-78
2022/07/06 03:50:49;;;;;;;6.47;3.78;;;;;;;18.92;85.77;94593.44;4993261;28;20260;-76
2022/07/06 03:53:16;;;;;;;4.45;3.47;;;;;;;19.03;85.91;94594.28;4993555;28;20537;-77
2022/07/06 03:55:43;;;;;;;10.20;3.20;;;;;;;18.94;84.46;94590.31;4992822;28;20731;-77
2022/07/06 03:58:09;;;;;;;4.70;3.50;;;;;;;18.98;85.25;94589.19;4992916;28;20763;-78
2022/07/06 04:00:38;;;;;;;3.97;3.13;;;;;;;19.00;84.01;94586.81;4992487;28;20202;-75
2022/07/06 04:03:04;;;;;;;5.85;2.92;;;;;;;19.21;83.87;94593.63;4992652;28;20297;-77
2022/07/06 04:05:31;;;;;;;5.97;3.78;;;;;;;20.16;80.39;94587.78;4992897;28;20888;-77
2022/07/06 04:07:58;;;;;;;4.93;3.55;;;;;;;21.55;75.44;94583.88;4993009;28;20229;-77
2022/07/06 04:10:25;;;;;;;5.30;3.47;;;;;;;22.68;71.09;94582.50;4992074;28;20438;-76
2022/07/06 04:12:51;;;;;;;4.28;3.03;;;;;;;22.87;69.50;94583.16;4993099;28;20701;-75
2022/07/06 04:15:18;;;;;;;9.57;3.03;;;;;;;22.53;69.14;94594.06;4993076;28;20671;-78
2022/07/06 04:17:52;;;;;;;6.25;5.60;;;;;;;22.84;70.00;94595.03;4993528;28;20248;-77
2022/07/06 04:20:20;;;;;;;6.35;5.00;;;;;;;23.65;67.60;94588.75;4993132;28;20205;-77
2022/07/06 04:22:46;;;;;;;6.47;4.82;;;;;;;23.84;65.03;94589.34;4993405;28;20233;-77
2022/07/06 04:25:13;;;;;;;4.95;4.43;;;;;;;23.89;64.49;94586.91;4992984;28;20206;-76
2022/07/06 04:27:40;;;;;;;4.10;3.13;;;;;;;24.61;64.22;94586.75;4992847;28;20696;-76
2022/07/06 04:30:08;;;;;;;4.90;3.03;;;;;;;24.25;63.53;94586.47;4992444;28;20202;-76
2022/07/06 04:32:35;;;;;;;5.30;4.82;;;;;;;25.50;60.32;94581.31;4992143;28;20241;-76
2022/07/06 04:35:05;;;;;;;5.32;4.90;;;;;;;26.26;57.87;94580.63;4992971;28;20206;-74
2022/07/06 04:37:32;;;;;;;5.72;5.22;;;;;;;25.65;58.54;94592.19;4992775;28;20229;-76
2022/07/06 04:39:58;;;;;;;6.07;5.55;;;;;;;24.98;59.79;94599.66;4992827;28;20220;-76
2022/07/06 04:42:25;;;;;;;3.75;2.38;;;;;;;24.61;60.86;94609.69;4992020;28;20276;-76
2022/07/06 04:44:52;;;;;;;4.80;2.92;;;;;;;24.72;61.48;94610.34;4992210;28;20202;-76
2022/07/06 04:47:19;;;;;;;5.13;2.65;;;;;;;25.05;60.08;94616.19;4992807;28;20299;-76
2022/07/06 04:49:46;;;;;;;6.00;5.20;;;;;;;25.18;59.53;94625.47;4992637;28;20259;-77
2022/07/06 04:52:14;;;;;;;6.95;5.28;;;;;;;23.93;62.97;94637.44;4992691;28;20206;-75
2022/07/06 04:54:41;;;;;;;6.45;5.90;;;;;;;22.68;66.79;94651.56;4996524;28;20261;-75
2022/07/06 04:57:08;;;;;;;6.30;5.70;;;;;;;21.47;71.24;94653.97;4992593;28;20248;-76
2022/07/06 04:59:34;;;;;;;7.07;6.38;;;;;;;20.66;74.45;94664.94;4992458;28;20202;-75
2022/07/06 05:02:01;;;;;;;6.55;4.03;;;;;;;20.05;77.46;94659.28;4992715;28;20217;-77
2022/07/06 05:04:28;;;;;;;7.28;6.45;;;;;;;20.08;77.17;94654.97;4993305;28;20193;-77
2022/07/06 05:06:55;;;;;;;7.20;3.95;;;;;;;19.69;79.26;94680.28;4991911;28;20616;-76
2022/07/06 05:09:23;;;;;;;17.30;5.00;;;;;;;19.77;79.43;94664.63;4992118;28;20205;-77
2022/07/06 05:11:50;;;;;;;11.02;4.57;;;;;;;19.86;79.23;94668.59;4992076;28;20205;-77
2022/07/06 05:14:16;;;;;;;8.57;4.70;;;;;;;20.22;79.16;94671.53;4978839;28;20214;-76
2022/07/06 05:16:43;;;;;;;3.90;2.20;;;;;;;20.23;78.20;94670.31;4991758;28;20214;-76
2022/07/06 05:19:10;;;;;;;5.93;4.00;;;;;;;20.15;78.62;94671.47;4979024;28;20270;-77
2022/07/06 05:21:39;;;;;;;12.20;4.22;;;;;;;20.04;78.94;94667.91;4995720;28;20251;-76
2022/07/06 05:24:06;;;;;;;6.68;4.25;;;;;;;20.05;78.92;94675.78;4995537;28;20222;-77
2022/07/06 05:26:37;;;;;;;5.68;4.43;;;;;;;20.04;78.55;94673.41;4999238;28;20204;-77
2022/07/06 05:29:04;;;;;;;5.93;4.05;;;;;;;20.51;77.83;94681.44;4999883;28;20218;-77
2022/07/06 05:31:30;;;;;;;8.30;5.43;;;;;;;22.68;71.45;94676.41;4992171;28;20198;-77
2022/07/06 05:33:57;;;;;;;9.68;4.70;;;;;;;25.19;61.92;94663.09;4991511;28;20245;-77
2022/07/06 05:36:24;;;;;;;6.78;4.10;;;;;;;25.67;59.54;94668.25;4991461;28;20609;-76
2022/07/06 05:38:50;;;;;;;7.30;3.65;;;;;;;26.30;56.88;94659.16;4980377;28;20633;-77
2022/07/06 05:41:17;;;;;;;9.18;4.90;;;;;;;26.33;56.03;94666.63;4991469;28;20260;-73
2022/07/06 05:43:46;;;;;;;7.88;6.85;;;;;;;26.98;55.87;94659.28;4991596;28;20236;-77
2022/07/06 05:46:12;;;;;;;7.88;6.28;;;;;;;27.08;54.39;94665.81;4991821;28;20238;-77
2022/07/06 05:51:23;;;;;;;4.18;3.58;;;;;;;25.31;57.39;94673.59;4986787;28;20272;-76
2022/07/06 05:53:50;;;;;;;8.15;7.35;;;;;;;26.54;55.18;94674.50;4991370;28;20205;-75
2022/07/06 05:56:17;;;;;;;7.43;6.25;;;;;;;25.98;55.16;94677.19;4991478;28;20209;-78
2022/07/06 05:58:44;;;;;;;7.13;6.43;;;;;;;25.63;57.32;94673.06;4991403;28;20570;-76
2022/07/06 06:01:12;;;;;;;7.97;7.07;;;;;;;24.07;61.14;94681.56;4991250;28;20209;-74
2022/07/06 06:03:39;;;;;;;9.95;7.13;;;;;;;24.82;61.00;94674.31;4991649;28;20205;-77
2022/07/06 06:06:06;;;;;;;8.95;6.65;;;;;;;25.46;58.65;94663.81;4990412;28;20264;-75
2022/07/06 06:08:33;;;;;;;8.07;7.38;;;;;;;24.42;60.35;94674.84;4990534;28;20233;-73
2022/07/06 06:11:00;;;;;;;7.63;6.93;;;;;;;25.55;58.56;94677.16;4991565;28;20206;-77
2022/07/06 06:13:26;;;;;;;7.05;6.38;;;;;;;25.15;57.56;94676.22;4991706;28;20213;-77
2022/07/06 06:15:53;;;;;;;7.47;6.65;;;;;;;24.88;59.83;94680.94;4991030;28;20205;-78
2022/07/06 06:18:21;;;;;;;6.78;6.03;;;;;;;23.82;61.37;94686.59;4991214;28;20205;-76
2022/07/06 06:20:49;;;;;;;6.38;5.68;;;;;;;23.38;63.78;94684.59;4990754;28;20213;-80
2022/07/06 06:23:15;;;;;;;6.28;5.68;;;;;;;24.21;62.59;94679.81;4989004;28;20704;-78
2022/07/06 06:25:42;;;;;;;7.60;6.47;;;;;;;23.81;63.08;94684.22;4991162;28;20206;-82
2022/07/06 06:28:10;;;;;;;7.07;6.38;;;;;;;22.67;65.72;94685.88;4990714;28;20259;-80
2022/07/06 06:30:38;;;;;;;6.95;6.05;;;;;;;21.86;69.38;94680.69;4991235;28;20209;-80
2022/07/06 06:33:09;;;;;;;7.68;6.88;;;;;;;21.52;70.20;94694.94;4990897;28;20805;-79
2022/07/06 06:35:39;;;;;;;7.75;6.95;;;;;;;21.35;71.05;94683.91;4990864;28;20805;-78
2022/07/06 06:38:06;;;;;;;8.23;7.38;;;;;;;21.65;71.14;94681.50;4990365;28;20661;-78
2022/07/06 06:40:32;;;;;;;8.80;6.55;;;;;;;21.39;71.83;94681.94;4990813;28;20202;-80
2022/07/06 06:42:59;;;;;;;7.80;6.82;;;;;;;21.46;71.35;94684.69;4990573;28;20281;-77
2022/07/06 06:45:26;;;;;;;5.90;4.65;;;;;;;21.69;71.48;94674.03;4990877;28;20197;-78
2022/07/06 06:47:53;;;;;;;9.60;5.28;;;;;;;21.57;71.44;94677.19;4990690;28;20230;-79
2022/07/06 06:50:20;;;;;;;7.35;4.30;;;;;;;21.70;71.57;94672.06;4991154;28;20206;-79
2022/07/06 06:52:48;;;;;;;8.60;4.50;;;;;;;21.13;73.17;94678.38;4990574;28;20213;-77
2022/07/06 06:55:15;;;;;;;10.35;7.70;;;;;;;21.38;73.06;94683.13;4991396;28;20612;-76
2022/07/06 06:57:42;;;;;;;6.25;4.18;;;;;;;21.62;71.46;94679.53;4994046;28;20256;-73
2022/07/06 07:00:10;;;;;;;7.72;5.20;;;;;;;21.88;71.75;94672.78;4994276;28;20236;-78
2022/07/06 07:02:37;;;;;;;8.63;7.63;;;;;;;22.53;69.47;94669.41;4994121;28;20688;-75
2022/07/06 07:05:04;;;;;;;8.30;4.65;;;;;;;22.82;67.87;94669.25;4994083;28;20260;-77
2022/07/06 07:07:31;;;;;;;10.77;6.28;;;;;;;23.42;66.57;94674.28;4993528;28;20206;-78
2022/07/06 07:09:59;;;;;;;10.38;8.43;;;;;;;23.46;66.74;94671.50;4994358;28;20209;-77
2022/07/06 07:12:26;;;;;;;10.02;8.05;;;;;;;23.37;66.53;94677.53;4994261;28;20260;-78
2022/07/06 07:14:53;;;;;;;10.00;8.10;;;;;;;23.12;66.21;94679.69;4993888;28;20228;-81
2022/07/06 07:17:20;;;;;;;8.90;8.00;;;;;;;22.18;68.58;94675.84;4993301;28;20566;-77
2022/07/06 07:19:47;;;;;;;9.30;8.30;;;;;;;22.06;69.34;94670.78;4994050;28;20209;-74
2022/07/06 07:22:13;;;;;;;9.40;8.13;;;;;;;22.44;68.76;94677.31;4993523;28;20289;-79
2022/07/06 07:24:40;;;;;;;11.43;8.70;;;;;;;21.77;69.56;94672.81;4993033;28;20201;-76
2022/07/06 07:27:08;;;;;;;10.43;8.35;;;;;;;21.97;69.91;94676.72;4991960;28;20255;-81
2022/07/06 07:29:35;;;;;;;9.45;7.82;;;;;;;22.13;69.37;94679.06;4993474;28;20237;-80
2022/07/06 07:32:02;;;;;;;10.27;8.68;;;;;;;22.06;69.09;94673.53;4993441;28;20206;-79
2022/07/06 07:34:29;;;;;;;12.45;7.85;;;;;;;22.48;68.38;94672.56;4993754;28;20592;-80
2022/07/06 07:36:56;;;;;;;10.63;8.85;;;;;;;22.72;67.28;94670.06;4993387;28;20228;-79
2022/07/06 07:39:22;;;;;;;13.15;5.95;;;;;;;22.98;66.12;94680.56;4993179;28;20731;-77
2022/07/06 07:41:50;;;;;;;7.10;4.70;;;;;;;22.51;66.68;94682.03;4980287;28;20198;-79
2022/07/06 07:44:18;;;;;;;12.00;8.57;;;;;;;22.89;65.62;94669.97;4993790;28;20631;-78
2022/07/06 07:46:45;;;;;;;9.15;5.57;;;;;;;23.57;65.40;94672.22;4993464;28;20205;-79
2022/07/06 07:49:12;;;;;;;13.40;7.85;;;;;;;23.69;63.63;94671.69;4993087;28;20226;-79
2022/07/06 07:51:38;;;;;;;9.75;7.90;;;;;;;23.66;63.99;94656.69;4993433;28;20279;-79
2022/07/06 07:54:05;;;;;;;11.60;8.35;;;;;;;25.06;60.56;94651.00;4993234;28;20731;-78
2022/07/06 07:56:32;;;;;;;8.48;7.68;;;;;;;25.71;56.48;94643.19;4993476;28;20233;-77
2022/07/06 07:58:59;;;;;;;10.65;8.35;;;;;;;26.30;55.33;94645.25;4992760;28;20202;-79
2022/07/06 08:01:27;;;;;;;11.40;8.30;;;;;;;25.90;55.80;94653.56;4993515;28;20206;-78
2022/07/06 08:03:54;;;;;;;8.65;7.78;;;;;;;25.52;56.48;94655.03;4992713;28;20264;-78
2022/07/06 08:06:21;;;;;;;9.15;8.25;;;;;;;25.77;56.49;94655.38;4992517;28;20268;-78
2022/07/06 08:08:48;;;;;;;10.80;7.90;;;;;;;26.62;54.81;94645.38;4992463;28;20284;-80
2022/07/06 08:11:14;;;;;;;8.80;7.85;;;;;;;26.43;54.62;94654.50;4992798;28;20494;-79
2022/07/06 08:13:41;;;;;;;9.15;8.20;;;;;;;26.73;55.00;94648.69;4992997;28;20210;-79
2022/07/06 08:16:09;;;;;;;11.65;8.73;;;;;;;27.67;52.47;94648.09;4992712;28;20206;-80
2022/07/06 08:18:38;;;;;;;9.35;8.45;;;;;;;28.22;50.61;94656.16;4992622;28;20216;-79
2022/07/06 08:21:05;;;;;;;9.10;8.18;;;;;;;27.62;53.35;94652.16;4992352;28;20233;-79
2022/07/06 08:23:34;;;;;;;8.43;7.60;;;;;;;26.56;53.36;94649.88;4992542;28;20661;-79
2022/07/06 08:26:01;;;;;;;9.85;7.75;;;;;;;27.45;51.98;94654.19;4992499;28;20260;-80
2022/07/06 08:28:28;;;;;;;8.25;7.45;;;;;;;26.63;55.13;94660.84;4992512;28;20397;-80
2022/07/06 08:30:55;;;;;;;9.38;8.38;;;;;;;26.28;55.29;94661.53;4992921;28;20209;-79
2022/07/06 08:33:22;;;;;;;8.80;7.90;;;;;;;26.72;54.12;94658.25;4991968;28;20803;-80
2022/07/06 08:35:50;;;;;;;8.63;7.80;;;;;;;27.92;51.09;94649.00;4992657;28;20276;-81
2022/07/06 08:38:17;;;;;;;8.60;7.68;;;;;;;27.50;49.49;94650.84;4992265;28;20205;-76
2022/07/06 08:40:48;;;;;;;8.65;7.82;;;;;;;27.08;52.64;94657.44;4992096;28;20198;-78
2022/07/06 08:43:14;;;;;;;8.90;8.00;;;;;;;26.82;52.94;94646.09;4992035;28;20209;-81
2022/07/06 08:45:43;;;;;;;9.50;8.15;;;;;;;26.31;54.12;94644.06;4992159;28;20869;-78
2022/07/06 08:48:11;;;;;;;11.45;8.68;;;;;;;27.81;52.48;94642.94;4992283;28;20883;-79
2022/07/06 08:50:38;;;;;;;9.95;8.95;;;;;;;28.69;49.78;94633.31;4992063;28;20206;-80
2022/07/06 08:53:07;;;;;;;9.48;8.55;;;;;;;29.79;47.17;94631.81;4992107;28;20326;-80
2022/07/06 08:55:35;;;;;;;9.68;8.68;;;;;;;27.94;51.91;94656.91;4991427;28;20653;-79
2022/07/06 08:58:04;;;;;;;9.35;8.25;;;;;;;26.92;53.42;94653.41;4991983;28;20288;-78
2022/07/06 09:00:33;;;;;;;10.30;9.30;;;;;;;26.98;53.84;94659.28;4992518;28;20596;-80
2022/07/06 09:03:01;;;;;;;9.52;8.40;;;;;;;27.08;54.59;94646.34;4992169;28;20297;-81
2022/07/06 09:05:29;;;;;;;9.63;8.73;;;;;;;27.29;54.11;94648.63;4992076;28;20205;-80
2022/07/06 09:07:57;;;;;;;10.10;8.93;;;;;;;28.30;52.44;94649.16;4991902;28;20201;-79
2022/07/06 09:10:26;;;;;;;10.20;9.15;;;;;;;28.44;50.92;94649.97;4991088;28;20213;-81
2022/07/06 09:12:52;;;;;;;11.70;8.93;;;;;;;28.13;52.36;94653.22;4991132;28;20209;-79
2022/07/06 09:15:19;;;;;;;9.13;8.02;;;;;;;27.93;52.87;94633.06;4991784;28;20213;-80
2022/07/06 09:17:46;;;;;;;10.18;9.10;;;;;;;27.56;53.33;94651.94;4991464;28;20260;-80
2022/07/06 09:20:14;;;;;;;10.38;9.38;;;;;;;27.42;52.02;94643.91;4990970;28;20205;-78
2022/07/06 09:22:42;;;;;;;9.73;8.75;;;;;;;27.32;53.32;94642.19;4991596;28;20225;-80
2022/07/06 09:25:11;;;;;;;9.68;8.10;;;;;;;26.56;55.40;94647.09;4991660;28;20205;-79
2022/07/06 09:27:41;;;;;;;9.73;8.73;;;;;;;26.26;56.06;94647.28;4991426;28;20222;-77
2022/07/06 09:30:09;;;;;;;9.38;8.38;;;;;;;25.81;57.37;94654.13;4991561;28;20340;-80
2022/07/06 09:32:40;;;;;;;8.73;7.90;;;;;;;25.48;57.81;94653.09;4991521;28;20242;-79
2022/07/06 09:35:07;;;;;;;9.13;8.00;;;;;;;25.54;57.10;94647.06;4991602;28;20237;-79
2022/07/06 09:37:35;;;;;;;12.05;7.82;;;;;;;25.74;56.63;94648.69;4991223;28;20244;-80
2022/07/06 09:40:02;;;;;;;10.88;8.18;;;;;;;25.44;58.29;94652.34;4991072;28;20221;-76
2022/07/06 09:42:29;;;;;;;9.43;8.43;;;;;;;25.63;57.61;94656.44;4991022;28;20209;-75
2022/07/06 09:44:58;;;;;;;8.75;7.47;;;;;;;26.29;56.71;94638.13;4991348;28;20201;-78
2022/07/06 09:47:27;;;;;;;9.50;8.45;;;;;;;26.54;55.07;94641.16;4991075;28;20205;-82
2022/07/06 09:49:56;;;;;;;8.82;7.95;;;;;;;26.27;54.85;94632.19;4991235;28;20241;-75
2022/07/06 09:52:24;;;;;;;11.50;8.30;;;;;;;26.30;55.68;94628.59;4991161;28;20260;-79
2022/07/06 09:54:51;;;;;;;10.68;9.15;;;;;;;26.15;56.36;94630.84;4991336;28;20260;-78
2022/07/06 09:57:18;;;;;;;10.63;9.18;;;;;;;26.34;56.81;94632.09;4991480;28;20345;-77
2022/07/06 09:59:52;;;;;;;9.77;8.75;;;;;;;25.90;56.56;94628.56;4991164;28;20206;-79
2022/07/06 10:02:22;;;;;;;11.50;9.10;;;;;;;25.69;58.42;94631.75;4991267;28;20204;-78
2022/07/06 10:04:52;;;;;;;13.18;8.75;;;;;;;25.43;58.11;94636.91;4991250;28;20198;-76
2022/07/06 10:07:22;;;;;;;9.75;7.85;;;;;;;25.67;56.94;94634.16;4991043;28;20204;-79
2022/07/06 10:09:49;;;;;;;10.20;8.95;;;;;;;25.72;57.20;94628.13;4990887;28;20778;-78
2022/07/06 10:12:18;;;;;;;11.32;8.93;;;;;;;25.81;56.60;94622.81;4991032;28;20715;-81
2022/07/06 10:14:45;;;;;;;9.98;8.70;;;;;;;25.95;56.75;94636.41;4990513;28;20253;-75
2022/07/06 10:17:13;;;;;;;9.95;8.90;;;;;;;25.82;58.02;94624.38;4990434;28;20209;-77
2022/07/06 10:19:42;;;;;;;10.23;8.60;;;;;;;25.64;57.04;94619.16;4990435;28;20257;-78
2022/07/06 10:22:09;;;;;;;11.00;9.95;;;;;;;25.61;58.08;94619.19;4990693;28;20225;-79
2022/07/06 10:24:43;;;;;;;12.55;11.35;;;;;;;25.22;57.86;94626.19;4990710;28;20284;-76
2022/07/06 10:27:11;;;;;;;13.10;11.82;;;;;;;24.72;58.38;94618.66;4990705;28;20240;-78
2022/07/06 10:29:38;;;;;;;14.23;12.85;;;;;;;25.30;58.71;94616.53;4991083;28;20233;-78
2022/07/06 10:32:06;;;;;;;16.25;14.75;;;;;;;25.70;58.05;94616.66;4994484;28;20292;-79
2022/07/06 10:34:36;;;;;;;14.30;12.95;;;;;;;26.27;56.66;94609.97;4994793;28;20194;-80
2022/07/06 10:37:04;;;;;;;13.60;12.38;;;;;;;25.49;56.80;94629.69;4995098;28;20201;-77
2022/07/06 10:42:49;;;;;;;14.00;12.80;;;;;;;25.26;57.89;94610.28;4994338;28;20278;-76
2022/07/06 10:45:32;;;;;;;15.73;14.15;;;;;;;25.13;60.04;94617.66;4982758;28;20225;-79
2022/07/06 10:48:20;;;;;;;15.93;14.43;;;;;;;25.13;58.08;94610.13;4994530;28;20619;-81
2022/07/06 10:50:50;;;;;;;18.63;17.17;;;;;;;25.31;56.12;94604.25;4989842;28;20728;-76
2022/07/06 10:53:24;;;;;;;17.88;16.38;;;;;;;25.14;59.59;94608.13;4981859;28;20241;-79
2022/07/06 10:55:53;;;;;;;20.90;19.25;;;;;;;25.25;57.61;94602.41;4993895;28;20213;-79
2022/07/06 10:58:48;;;;;;;18.90;17.20;;;;;;;26.11;58.10;94619.03;4994674;28;20206;-78
2022/07/06 11:01:16;;;;;;;26.25;24.25;;;;;;;26.16;55.83;94604.66;4959089;28;20210;-79
2022/07/06 11:03:44;;;;;;;27.17;25.27;;;;;;;26.03;55.88;94606.50;4993917;28;20201;-77
2022/07/06 11:06:14;;;;;;;37.83;35.33;;;;;;;26.11;55.59;94607.91;4994522;28;20264;-81
2022/07/06 11:08:53;;;;;;;27.40;25.60;;;;;;;25.34;57.83;94614.50;4994354;28;20197;-80
2022/07/06 11:11:23;;;;;;;43.63;40.97;;;;;;;25.73;56.04;94604.69;4994269;28;20198;-77
2022/07/06 11:13:55;;;;;;;40.72;38.05;;;;;;;25.47;57.04;94609.91;4993844;28;20210;-79
2022/07/06 11:16:25;;;;;;;37.72;35.17;;;;;;;26.03;55.28;94607.28;4993759;28;20206;-80
2022/07/06 11:19:04;;;;;;;30.77;28.80;;;;;;;26.15;53.77;94606.63;4993404;28;20695;-79
2022/07/06 11:21:51;;;;;;;39.35;36.97;;;;;;;26.05;55.37;94604.88;4993790;28;20321;-76
2022/07/06 11:24:20;;;;;;;37.83;35.35;;;;;;;26.05;55.02;94604.88;4982067;28;20194;-78
2022/07/06 11:26:49;;;;;;;57.67;54.17;;;;;;;26.78;53.46;94594.59;4993565;28;20245;-79
2022/07/06 11:29:18;;;;;;;26.20;24.27;;;;;;;26.45;52.86;94588.19;4993965;28;20272;-77
2022/07/06 11:31:46;;;;;;;10.75;8.63;;;;;;;26.35;53.96;94594.75;4993592;28;20297;-76
2022/07/06 11:34:15;;;;;;;8.85;7.50;;;;;;;26.19;52.71;94599.03;4993753;28;20214;-80
2022/07/06 11:36:42;;;;;;;10.45;8.73;;;;;;;25.94;54.59;94592.41;4992971;28;20194;-80
2022/07/06 11:39:08;;;;;;;9.48;8.27;;;;;;;26.59;55.13;94598.19;4993208;28;20209;-78
2022/07/06 11:41:37;;;;;;;10.40;8.10;;;;;;;26.52;52.80;94591.56;4991716;28;20780;-78
2022/07/06 11:44:04;;;;;;;8.77;7.53;;;;;;;26.50;52.83;94591.25;4992677;28;20695;-77